createdAt,value
2022-10-25T00:03:35.637Z,94.81
2022-10-25T00:08:38.452Z,93.38
2022-10-25T00:13:41.005Z,95.47
2022-10-25T00:18:44.897Z,92.90
2022-10-25T00:23:48.282Z,91.19
2022-10-25T00:28:54.399Z,92.72
2022-10-25T00:33:58.387Z,93.20
2022-10-25T00:39:01.014Z,91.22
2022-10-25T00:44:46.519Z,94.44
2022-10-25T00:49:56.489Z,93.89
2022-10-25T00:55:00.805Z,95.44
2022-10-25T01:00:03.974Z,94.92
2022-10-25T01:05:09.443Z,96.99
2022-10-25T01:10:12.415Z,95.48
2022-10-25T01:15:15.341Z,94.08
2022-10-25T01:20:53.721Z,93.07
2022-10-25T01:26:18.612Z,91.27
2022-10-25T01:31:31.972Z,92.49
2022-10-25T01:36:46.638Z,92.59
2022-10-25T01:42:01.851Z,93.16
2022-10-25T01:47:10.424Z,92.83
2022-10-25T01:52:13.707Z,93.75
2022-10-25T01:57:35.288Z,93.68
2022-10-25T02:03:01.961Z,94.48
2022-10-25T02:08:10.148Z,94.92
2022-10-25T02:13:19.323Z,95.97
2022-10-25T02:18:26.937Z,97.36
2022-10-25T02:23:31.168Z,96.84
2022-10-25T02:28:35.810Z,96.75
2022-10-25T02:33:39.879Z,95.19
2022-10-25T02:38:43.287Z,95.06
2022-10-25T02:43:46.029Z,93.39
2022-10-25T02:48:50.421Z,92.79
2022-10-25T02:53:52.973Z,91.99
2022-10-25T02:58:57.569Z,92.75
2022-10-25T03:04:01.510Z,100.00
2022-10-25T03:09:04.652Z,100.00
2022-10-25T03:14:07.290Z,100.00
2022-10-25T03:19:11.410Z,100.00
2022-10-25T03:24:14.138Z,100.00
2022-10-25T03:29:16.734Z,100.00
2022-10-25T03:34:20.698Z,100.00
2022-10-25T03:39:23.252Z,100.00
2022-10-25T03:44:25.881Z,100.00
2022-10-25T03:49:29.782Z,100.00
2022-10-25T03:54:32.579Z,100.00
2022-10-25T03:59:35.147Z,100.00
2022-10-25T04:04:39.123Z,100.00
2022-10-25T04:09:41.695Z,100.00
2022-10-25T04:14:44.300Z,100.00
2022-10-25T04:19:48.263Z,100.00
2022-10-25T04:24:50.895Z,100.00
2022-10-25T04:29:53.452Z,100.00
2022-10-25T04:35:00.582Z,100.00
2022-10-25T04:40:03.239Z,100.00
2022-10-25T04:45:06.559Z,100.00
2022-10-25T04:50:11.085Z,100.00
2022-10-25T04:55:13.563Z,100.00
2022-10-25T05:00:16.266Z,100.00
2022-10-25T05:05:20.718Z,100.00
2022-10-25T05:10:23.248Z,100.00
2022-10-25T05:15:25.806Z,100.00
2022-10-25T05:20:30.120Z,100.00
2022-10-25T05:25:32.640Z,98.33
2022-10-25T05:30:35.244Z,98.17
2022-10-25T05:35:39.198Z,95.54
2022-10-25T05:40:41.999Z,96.83
2022-10-25T05:45:44.536Z,97.35
2022-10-25T05:50:51.604Z,98.20
2022-10-25T05:56:00.755Z,100.00
2022-10-25T06:01:03.351Z,100.00
2022-10-25T06:06:10.422Z,100.00
2022-10-25T06:11:15.015Z,100.00
2022-10-25T06:16:20.125Z,98.27
2022-10-25T06:21:26.162Z,96.30
2022-10-25T06:26:31.724Z,93.89
2022-10-25T06:31:34.675Z,91.52
2022-10-25T06:36:38.760Z,91.01
2022-10-25T06:41:41.373Z,88.88
2022-10-25T06:47:12.028Z,89.93
2022-10-25T06:52:08.304Z,91.43
2022-10-25T06:57:10.953Z,88.97
2022-10-25T07:02:13.782Z,88.87
2022-10-25T07:07:17.823Z,86.89
2022-10-25T07:12:20.431Z,88.12
2022-10-25T07:17:23.056Z,88.52
2022-10-25T07:22:27.243Z,87.21
2022-10-25T07:27:33.045Z,84.65
2022-10-25T07:32:40.016Z,84.89
2022-10-25T07:37:46.094Z,84.35
2022-10-25T07:42:50.285Z,85.58
2022-10-25T07:47:53.106Z,86.38
2022-10-25T07:52:57.668Z,87.36
2022-10-25T07:58:01.753Z,85.55
2022-10-25T08:03:04.960Z,84.61
2022-10-25T08:08:09.349Z,83.94
2022-10-25T08:13:12.197Z,82.77
2022-10-25T08:18:14.763Z,83.44
2022-10-25T08:23:18.890Z,81.93
2022-10-25T08:28:21.832Z,82.94
2022-10-25T08:33:25.048Z,83.72
2022-10-25T08:38:29.211Z,82.57
2022-10-25T08:43:49.814Z,82.39
2022-10-25T08:48:57.799Z,83.50
2022-10-25T08:54:06.466Z,83.17
2022-10-25T08:59:13.446Z,83.02
2022-10-25T09:04:16.445Z,81.57
2022-10-25T09:09:34.199Z,81.05
2022-10-25T09:14:49.243Z,80.81
2022-10-25T09:20:04.422Z,79.97
2022-10-25T09:25:21.775Z,78.54
2022-10-25T09:30:24.511Z,80.96
2022-10-25T09:35:34.014Z,80.20
2022-10-25T09:40:47.940Z,80.28
2022-10-25T09:45:54.240Z,79.27
2022-10-25T09:51:05.221Z,79.16
2022-10-25T09:56:09.478Z,79.53
2022-10-25T10:01:14.272Z,78.35
2022-10-25T10:06:19.682Z,78.15
2022-10-25T10:11:24.505Z,79.55
2022-10-25T10:16:31.795Z,74.02
2022-10-25T10:21:36.945Z,69.20
2022-10-25T10:26:47.519Z,63.34
2022-10-25T10:31:52.832Z,64.92
2022-10-25T10:37:08.306Z,68.73
2022-10-25T10:42:17.890Z,69.47
2022-10-25T10:47:24.510Z,72.74
2022-10-25T10:52:31.308Z,73.34
2022-10-25T10:57:36.373Z,74.63
2022-10-25T11:02:42.055Z,75.93
2022-10-25T11:07:44.962Z,74.29
2022-10-25T11:13:06.438Z,75.33
2022-10-25T11:18:11.473Z,75.16
2022-10-25T11:23:22.559Z,72.64
2022-10-25T11:28:42.691Z,71.51
2022-10-25T11:33:58.884Z,64.50
2022-10-25T11:39:12.254Z,55.90
2022-10-25T11:44:45.726Z,52.07
2022-10-25T11:49:59.470Z,49.69
2022-10-25T11:55:12.198Z,56.67
2022-10-25T12:00:19.660Z,61.04
2022-10-25T12:05:29.676Z,66.59
2022-10-25T12:10:36.707Z,64.92
2022-10-25T12:15:46.460Z,65.63
2022-10-25T12:20:51.015Z,65.08
2022-10-25T12:25:57.735Z,66.95
2022-10-25T12:31:07.781Z,67.59
2022-10-25T12:36:24.000Z,66.02
2022-10-25T12:41:30.515Z,65.32
2022-10-25T12:47:16.938Z,60.09
2022-10-25T12:52:29.357Z,52.34
2022-10-25T12:57:47.400Z,58.32
2022-10-25T13:03:30.100Z,62.53
2022-10-25T13:08:34.034Z,66.16
2022-10-25T13:13:40.140Z,63.93
2022-10-25T13:18:46.100Z,63.89
2022-10-25T13:24:02.806Z,53.49
2022-10-25T13:29:46.771Z,55.08
2022-10-25T13:34:50.878Z,62.91
2022-10-25T13:39:55.232Z,63.34
2022-10-25T13:45:00.723Z,67.15
2022-10-25T13:50:13.926Z,69.58
2022-10-25T13:55:21.426Z,64.56
2022-10-25T14:00:39.075Z,61.76
2022-10-25T14:06:22.817Z,67.24
2022-10-25T14:11:35.287Z,69.33
2022-10-25T14:16:45.240Z,70.98
2022-10-25T14:21:51.652Z,70.93
2022-10-25T14:26:56.491Z,62.53
2022-10-25T14:31:59.735Z,55.23
2022-10-25T14:37:04.860Z,60.21
2022-10-25T14:42:17.291Z,56.74
2022-10-25T14:47:40.829Z,52.92
2022-10-25T14:52:47.043Z,60.97
2022-10-25T14:57:49.977Z,65.11
2022-10-25T15:02:56.681Z,67.29
2022-10-25T15:08:01.765Z,68.25
2022-10-25T15:13:36.452Z,69.53
2022-10-25T15:18:39.813Z,71.20
2022-10-25T15:24:29.729Z,71.16
2022-10-25T15:34:58.363Z,73.48
2022-10-25T15:40:01.148Z,73.62
2022-10-25T15:45:05.950Z,73.84
2022-10-25T15:50:15.333Z,74.88
2022-10-25T15:55:20.372Z,75.15
2022-10-25T16:00:28.126Z,76.29
2022-10-25T16:05:33.173Z,82.43
2022-10-25T16:10:36.158Z,80.67
2022-10-25T16:15:40.255Z,83.97
2022-10-25T16:20:43.394Z,86.04
2022-10-25T16:25:46.115Z,90.58
2022-10-25T16:30:50.115Z,91.98
2022-10-25T16:35:52.707Z,95.10
2022-10-25T16:40:57.095Z,99.33
2022-10-25T16:46:00.843Z,98.51
2022-10-25T16:51:03.639Z,95.54
2022-10-25T16:56:07.806Z,91.56
2022-10-25T17:01:21.330Z,100.00
2022-10-25T17:11:47.266Z,100.00
2022-10-25T17:16:51.199Z,100.00
2022-10-25T17:21:53.896Z,97.97
2022-10-25T17:26:56.527Z,95.38
2022-10-25T17:32:01.193Z,97.05
2022-10-25T17:37:03.838Z,100.00
2022-10-25T17:42:06.651Z,100.00
2022-10-25T17:47:12.590Z,100.00
2022-10-25T17:52:15.206Z,100.00
2022-10-25T17:57:17.882Z,100.00
2022-10-25T18:02:21.992Z,100.00
2022-10-25T18:07:28.940Z,100.00
2022-10-25T18:12:33.846Z,100.00
2022-10-25T18:17:37.764Z,100.00
2022-10-25T18:22:40.447Z,100.00
2022-10-25T18:27:45.415Z,100.00
2022-10-25T18:32:49.718Z,100.00
2022-10-25T18:37:52.397Z,100.00
2022-10-25T18:42:54.981Z,100.00
2022-10-25T18:47:59.287Z,100.00
2022-10-25T18:53:02.739Z,100.00
2022-10-25T18:58:06.959Z,100.00
2022-10-25T19:03:12.721Z,98.95
2022-10-25T19:08:15.388Z,100.00
2022-10-25T19:13:19.725Z,97.40
2022-10-25T19:18:25.368Z,95.41
2022-10-25T19:23:27.968Z,98.43
2022-10-25T19:28:30.718Z,100.00
2022-10-25T19:33:34.853Z,100.00
2022-10-25T19:38:38.932Z,100.00
2022-10-25T19:43:41.541Z,100.00
2022-10-25T19:48:45.940Z,100.00
2022-10-25T19:53:49.653Z,99.63
2022-10-25T19:58:52.521Z,98.25
2022-10-25T20:03:58.683Z,97.53
2022-10-25T20:09:02.569Z,97.21
2022-10-25T20:14:05.345Z,96.09
2022-10-25T20:19:13.126Z,95.60
2022-10-25T20:24:15.956Z,95.32
2022-10-25T20:29:21.560Z,97.69
2022-10-25T20:34:25.721Z,99.06
2022-10-25T20:39:28.368Z,97.62
2022-10-25T20:44:30.958Z,96.35
2022-10-25T20:49:34.979Z,95.73
2022-10-25T20:54:37.611Z,99.29
2022-10-25T20:59:40.253Z,98.14
2022-10-25T21:04:53.349Z,96.59
2022-10-25T21:09:56.492Z,96.55
2022-10-25T21:14:59.039Z,96.92
2022-10-25T21:20:03.052Z,100.00
2022-10-25T21:25:06.481Z,99.97
2022-10-25T21:30:10.169Z,100.00
2022-10-25T21:35:14.230Z,100.00
2022-10-25T21:40:17.701Z,100.00
2022-10-25T21:45:20.617Z,100.00
2022-10-25T21:50:24.791Z,100.00
2022-10-25T21:55:27.402Z,100.00
2022-10-25T22:00:29.964Z,100.00
2022-10-25T22:05:33.930Z,100.00
2022-10-25T22:10:36.600Z,100.00
2022-10-25T22:15:39.107Z,100.00
2022-10-25T22:20:43.073Z,100.00
2022-10-25T22:25:45.866Z,100.00
2022-10-25T22:30:48.470Z,100.00
2022-10-25T22:35:52.426Z,100.00
2022-10-25T22:40:59.041Z,100.00
2022-10-25T22:46:01.843Z,100.00
2022-10-25T22:51:06.574Z,100.00
2022-10-25T22:56:12.240Z,100.00
2022-10-25T23:01:17.139Z,100.00
2022-10-25T23:06:22.939Z,100.00
2022-10-25T23:11:27.600Z,100.00
2022-10-25T23:16:30.933Z,100.00
2022-10-25T23:21:34.967Z,100.00
2022-10-25T23:26:37.562Z,100.00
2022-10-25T23:31:40.161Z,100.00
2022-10-25T23:36:44.458Z,100.00
2022-10-25T23:41:47.222Z,100.00
2022-10-25T23:46:49.814Z,100.00
2022-10-25T23:51:53.800Z,100.00
2022-10-25T23:56:56.555Z,100.00
